sensor_id;sensor_type;location;lat;lon;timestamp;pressure;altitude;pressure_sealevel;temperature;humidity
28310;BME280;15571;50.974;13.936;2022-10-22T03:41:42;99733.22;;;11.96;100.00
28310;BME280;15571;50.974;13.936;2022-10-22T03:44:45;99731.47;;;11.95;100.00
28310;BME280;15571;50.974;13.936;2022-10-22T03:47:48;99731.47;;;11.98;100.00
28310;BME280;15571;50.974;13.936;2022-10-22T03:50:51;99743.72;;;11.98;100.00
28310;BME280;15571;50.974;13.936;2022-10-22T03:53:54;99744.53;;;12.00;100.00
28310;BME280;15571;50.974;13.936;2022-10-22T03:57:01;99750.66;;;12.01;100.00
28310;BME280;15571;50.974;13.936;2022-10-22T04:00:09;99749.81;;;11.98;100.00
28310;BME280;15571;50.974;13.936;2022-10-22T04:03:15;99745.41;;;12.01;100.00
28310;BME280;15571;50.974;13.936;2022-10-22T04:06:18;99744.53;;;12.00;100.00
28310;BME280;15571;50.974;13.936;2022-10-22T04:09:20;99744.53;;;12.00;100.00
28310;BME280;15571;50.974;13.936;2022-10-22T04:12:24;99745.41;;;12.01;100.00
28310;BME280;15571;50.974;13.936;2022-10-22T04:15:29;99744.59;;;11.97;100.00
28310;BME280;15571;50.974;13.936;2022-10-22T04:18:36;99740.22;;;11.97;100.00
28310;BME280;15571;50.974;13.936;2022-10-22T04:21:41;99745.41;;;12.01;100.00
28310;BME280;15571;50.974;13.936;2022-10-22T04:24:43;99746.28;;;12.01;100.00
28310;BME280;15571;50.974;13.936;2022-10-22T04:27:47;99754.22;;;11.98;100.00
28310;BME280;15571;50.974;13.936;2022-10-22T04:30:50;99759.44;;;11.99;100.00
28310;BME280;15571;50.974;13.936;2022-10-22T04:33:57;99754.19;;;11.96;100.00
28310;BME280;15571;50.974;13.936;2022-10-22T04:37:02;99756.81;;;11.96;100.00
28310;BME280;15571;50.974;13.936;2022-10-22T04:40:05;99740.19;;;12.01;100.00
28310;BME280;15571;50.974;13.936;2022-10-22T04:43:10;99745.47;;;11.96;100.00
28310;BME280;15571;50.974;13.936;2022-10-22T04:46:15;99745.41;;;12.01;100.00
28310;BME280;15571;50.974;13.936;2022-10-22T04:49:18;99752.50;;;11.94;100.00
28310;BME280;15571;50.974;13.936;2022-10-22T04:52:21;99740.28;;;11.94;100.00
28310;BME280;15571;50.974;13.936;2022-10-22T04:55:23;99735.03;;;11.94;100.00
28310;BME280;15571;50.974;13.936;2022-10-22T04:58:30;99728.84;;;11.95;100.00
28310;BME280;15571;50.974;13.936;2022-10-22T05:01:34;99726.28;;;11.94;100.00
28310;BME280;15571;50.974;13.936;2022-10-22T05:04:37;99731.44;;;12.00;100.00
28310;BME280;15571;50.974;13.936;2022-10-22T05:07:42;99739.28;;;12.00;100.00
28310;BME280;15571;50.974;13.936;2022-10-22T05:10:45;99727.97;;;11.96;100.00
28310;BME280;15571;50.974;13.936;2022-10-22T05:13:49;99741.91;;;12.02;100.00
28310;BME280;15571;50.974;13.936;2022-10-22T05:16:52;99735.84;;;11.98;100.00
28310;BME280;15571;50.974;13.936;2022-10-22T05:19:55;99749.78;;;12.00;100.00
28310;BME280;15571;50.974;13.936;2022-10-22T05:22:57;99743.66;;;12.01;100.00
28310;BME280;15571;50.974;13.936;2022-10-22T05:26:01;99741.97;;;11.95;100.00
28310;BME280;15571;50.974;13.936;2022-10-22T05:29:05;99754.28;;;11.93;100.00
28310;BME280;15571;50.974;13.936;2022-10-22T05:32:07;99762.09;;;11.95;100.00
28310;BME280;15571;50.974;13.936;2022-10-22T05:35:10;99770.06;;;11.90;100.00
28310;BME280;15571;50.974;13.936;2022-10-22T05:38:13;99773.53;;;11.91;100.00
28310;BME280;15571;50.974;13.936;2022-10-22T05:41:18;99777.84;;;11.95;100.00
28310;BME280;15571;50.974;13.936;2022-10-22T05:44:22;99778.78;;;11.92;100.00
28310;BME280;15571;50.974;13.936;2022-10-22T05:47:25;99774.38;;;11.94;100.00
28310;BME280;15571;50.974;13.936;2022-10-22T05:50:30;99765.56;;;11.95;100.00
28310;BME280;15571;50.974;13.936;2022-10-22T05:53:33;99777.84;;;11.95;100.00
28310;BME280;15571;50.974;13.936;2022-10-22T05:56:37;99781.31;;;11.95;100.00
28310;BME280;15571;50.974;13.936;2022-10-22T05:59:45;99787.44;;;11.97;100.00
28310;BME280;15571;50.974;13.936;2022-10-22T06:02:49;99785.69;;;11.98;100.00
28310;BME280;15571;50.974;13.936;2022-10-22T06:05:54;99786.56;;;11.95;100.00
28310;BME280;15571;50.974;13.936;2022-10-22T06:09:00;99797.00;;;12.00;100.00
28310;BME280;15571;50.974;13.936;2022-10-22T06:12:03;99804.91;;;11.97;100.00
28310;BME280;15571;50.974;13.936;2022-10-22T06:15:13;99811.88;;;11.99;100.00
28310;BME280;15571;50.974;13.936;2022-10-22T06:18:15;99814.56;;;11.95;100.00
28310;BME280;15571;50.974;13.936;2022-10-22T06:21:21;99814.53;;;11.96;100.00
28310;BME280;15571;50.974;13.936;2022-10-22T06:24:27;99817.28;;;11.90;100.00
28310;BME280;15571;50.974;13.936;2022-10-22T06:27:33;99810.25;;;11.92;100.00
28310;BME280;15571;50.974;13.936;2022-10-22T06:30:37;99821.59;;;11.93;100.00
28310;BME280;15571;50.974;13.936;2022-10-22T06:33:40;99816.34;;;11.94;100.00
28310;BME280;15571;50.974;13.936;2022-10-22T06:36:48;99818.16;;;11.89;100.00
28310;BME280;15571;50.974;13.936;2022-10-22T06:39:54;99825.97;;;11.92;100.00
28310;BME280;15571;50.974;13.936;2022-10-22T06:42:58;99830.28;;;11.98;100.00
28310;BME280;15571;50.974;13.936;2022-10-22T06:46:07;99833.75;;;11.98;100.00
28310;BME280;15571;50.974;13.936;2022-10-22T06:49:13;99844.28;;;11.95;100.00
28310;BME280;15571;50.974;13.936;2022-10-22T06:52:16;99844.31;;;11.94;100.00
28310;BME280;15571;50.974;13.936;2022-10-22T06:55:21;99849.56;;;11.94;100.00
28310;BME280;15571;50.974;13.936;2022-10-22T06:58:26;99848.69;;;11.93;100.00
28310;BME280;15571;50.974;13.936;2022-10-22T07:01:32;99858.25;;;11.96;100.00
28310;BME280;15571;50.974;13.936;2022-10-22T07:04:35;99859.09;;;11.99;100.00
28310;BME280;15571;50.974;13.936;2022-10-22T07:07:41;99853.88;;;11.99;100.00
28310;BME280;15571;50.974;13.936;2022-10-22T07:10:43;99855.56;;;12.04;100.00
28310;BME280;15571;50.974;13.936;2022-10-22T07:13:49;99868.59;;;12.07;100.00
28310;BME280;15571;50.974;13.936;2022-10-22T07:16:54;99873.84;;;12.07;100.00
28310;BME280;15571;50.974;13.936;2022-10-22T07:19:57;99870.38;;;12.06;100.00
28310;BME280;15571;50.974;13.936;2022-10-22T07:23:00;99872.94;;;12.08;100.00
28310;BME280;15571;50.974;13.936;2022-10-22T07:26:03;99879.94;;;12.09;100.00
28310;BME280;15571;50.974;13.936;2022-10-22T07:29:07;99888.84;;;11.98;100.00
28310;BME280;15571;50.974;13.936;2022-10-22T07:32:13;99899.34;;;11.95;100.00
28310;BME280;15571;50.974;13.936;2022-10-22T07:35:16;99905.47;;;11.99;100.00
28310;BME280;15571;50.974;13.936;2022-10-22T07:38:18;99899.34;;;11.98;100.00
28310;BME280;15571;50.974;13.936;2022-10-22T07:41:24;99896.72;;;11.98;100.00
28310;BME280;15571;50.974;13.936;2022-10-22T07:44:29;99891.53;;;11.94;100.00
28310;BME280;15571;50.974;13.936;2022-10-22T07:47:33;99897.63;;;11.96;100.00
28310;BME280;15571;50.974;13.936;2022-10-22T07:50:36;99900.19;;;12.01;100.00
28310;BME280;15571;50.974;13.936;2022-10-22T07:53:38;99908.19;;;11.91;100.00
28310;BME280;15571;50.974;13.936;2022-10-22T07:56:43;99922.13;;;11.93;100.00
28310;BME280;15571;50.974;13.936;2022-10-22T07:59:48;99933.44;;;11.95;100.00
28310;BME280;15571;50.974;13.936;2022-10-22T08:02:52;99941.31;;;11.95;100.00
28310;BME280;15571;50.974;13.936;2022-10-22T08:05:55;99945.72;;;11.95;100.00
28310;BME280;15571;50.974;13.936;2022-10-22T08:09:01;99943.06;;;11.99;100.00
28310;BME280;15571;50.974;13.936;2022-10-22T08:12:04;99944.72;;;12.05;100.00
28310;BME280;15571;50.974;13.936;2022-10-22T08:15:10;99946.41;;;12.08;100.00
28310;BME280;15571;50.974;13.936;2022-10-22T08:18:14;99950.81;;;12.06;100.00
28310;BME280;15571;50.974;13.936;2022-10-22T08:21:16;99957.88;;;12.02;100.00
28310;BME280;15571;50.974;13.936;2022-10-22T08:24:19;99960.50;;;12.04;100.00
28310;BME280;15571;50.974;13.936;2022-10-22T08:27:22;99959.59;;;12.05;100.00
28310;BME280;15571;50.974;13.936;2022-10-22T08:30:24;99957.78;;;12.07;100.00
28310;BME280;15571;50.974;13.936;2022-10-22T08:33:31;99959.59;;;12.05;100.00
28310;BME280;15571;50.974;13.936;2022-10-22T08:36:33;99959.53;;;12.08;100.00
28310;BME280;15571;50.974;13.936;2022-10-22T08:39:36;99967.47;;;12.05;100.00
28310;BME280;15571;50.974;13.936;2022-10-22T08:46:29;99972.63;;;12.11;100.00
28310;BME280;15571;50.974;13.936;2022-10-22T08:49:38;99971.63;;;12.18;100.00
28310;BME280;15571;50.974;13.936;2022-10-22T08:52:55;99975.94;;;12.22;100.00
28310;BME280;15571;50.974;13.936;2022-10-22T08:55:58;99974.16;;;12.24;100.00
28310;BME280;15571;50.974;13.936;2022-10-22T08:59:09;99976.78;;;12.24;100.00
28310;BME280;15571;50.974;13.936;2022-10-22T09:02:26;99972.41;;;12.23;100.00
28310;BME280;15571;50.974;13.936;2022-10-22T09:05:40;99969.72;;;12.26;100.00
28310;BME280;15571;50.974;13.936;2022-10-22T09:08:45;99955.72;;;12.27;100.00
28310;BME280;15571;50.974;13.936;2022-10-22T09:11:49;99951.34;;;12.26;100.00
28310;BME280;15571;50.974;13.936;2022-10-22T09:14:55;99959.97;;;12.35;100.00
28310;BME280;15571;50.974;13.936;2022-10-22T09:18:09;99947.75;;;12.34;100.00
28310;BME280;15571;50.974;13.936;2022-10-22T09:21:25;99966.09;;;12.35;100.00
28310;BME280;15571;50.974;13.936;2022-10-22T09:24:35;99967.75;;;12.41;100.00
28310;BME280;15571;50.974;13.936;2022-10-22T09:27:38;99969.41;;;12.47;100.00
28310;BME280;15571;50.974;13.936;2022-10-22T09:30:42;99963.22;;;12.49;100.00
28310;BME280;15571;50.974;13.936;2022-10-22T09:33:49;99965.69;;;12.58;100.00
28310;BME280;15571;50.974;13.936;2022-10-22T09:36:58;99970.00;;;12.61;100.00
28310;BME280;15571;50.974;13.936;2022-10-22T09:40:04;99969.94;;;12.66;100.00
28310;BME280;15571;50.974;13.936;2022-10-22T09:43:08;99969.75;;;12.75;100.00
28310;BME280;15571;50.974;13.936;2022-10-22T09:46:16;99966.19;;;12.79;100.00
28310;BME280;15571;50.974;13.936;2022-10-22T09:49:22;99953.81;;;12.84;100.00
28310;BME280;15571;50.974;13.936;2022-10-22T09:52:28;99964.25;;;12.89;100.00
28310;BME280;15571;50.974;13.936;2022-10-22T09:55:31;99971.22;;;12.90;100.00
28310;BME280;15571;50.974;13.936;2022-10-22T09:58:41;99970.25;;;12.96;100.00
28310;BME280;15571;50.974;13.936;2022-10-22T10:01:44;99977.19;;;13.00;100.00
28310;BME280;15571;50.974;13.936;2022-10-22T10:04:48;99971.84;;;13.04;100.00
28310;BME280;15571;50.974;13.936;2022-10-22T10:08:04;99971.75;;;13.09;100.00
28310;BME280;15571;50.974;13.936;2022-10-22T10:11:18;99969.03;;;13.14;100.00
28310;BME280;15571;50.974;13.936;2022-10-22T10:14:29;99958.56;;;13.12;100.00
28310;BME280;15571;50.974;13.936;2022-10-22T10:17:42;99966.53;;;13.06;100.00
28310;BME280;15571;50.974;13.936;2022-10-22T10:20:52;99961.25;;;13.09;100.00
28310;BME280;15571;50.974;13.936;2022-10-22T10:24:07;99967.34;;;13.11;100.00
28310;BME280;15571;50.974;13.936;2022-10-22T10:27:22;99980.38;;;13.16;100.00
28310;BME280;15571;50.974;13.936;2022-10-22T10:30:30;99982.97;;;13.17;100.00
28310;BME280;15571;50.974;13.936;2022-10-22T10:33:42;99988.09;;;13.23;100.00
28310;BME280;15571;50.974;13.936;2022-10-22T10:36:53;99987.19;;;13.26;100.00
28310;BME280;15571;50.974;13.936;2022-10-22T10:40:17;99987.91;;;13.33;100.00
28310;BME280;15571;50.974;13.936;2022-10-22T10:43:33;99981.00;;;13.29;100.00
28310;BME280;15571;50.974;13.936;2022-10-22T10:46:45;99979.41;;;13.21;100.00
28310;BME280;15571;50.974;13.936;2022-10-22T10:49:53;99981.78;;;13.32;100.00
28310;BME280;15571;50.974;13.936;2022-10-22T10:53:05;99983.44;;;13.38;100.00
28310;BME280;15571;50.974;13.936;2022-10-22T10:56:27;99986.88;;;13.42;100.00
28310;BME280;15571;50.974;13.936;2022-10-22T10:59:44;99984.09;;;13.49;100.00
28310;BME280;15571;50.974;13.936;2022-10-22T11:06:38;99975.19;;;13.57;100.00
28310;BME280;15571;50.974;13.936;2022-10-22T11:09:44;99982.13;;;13.61;100.00
28310;BME280;15571;50.974;13.936;2022-10-22T11:12:52;99982.03;;;13.64;100.00
28310;BME280;15571;50.974;13.936;2022-10-22T11:16:04;99979.28;;;13.68;100.00
28310;BME280;15571;50.974;13.936;2022-10-22T11:19:24;99973.94;;;13.73;100.00
28310;BME280;15571;50.974;13.936;2022-10-22T11:22:30;99982.63;;;13.77;100.00
28310;BME280;15571;50.974;13.936;2022-10-22T11:25:39;100000.91;;;13.83;100.00
28310;BME280;15571;50.974;13.936;2022-10-22T11:28:49;100003.44;;;13.88;100.00
28310;BME280;15571;50.974;13.936;2022-10-22T11:31:54;99998.84;;;13.96;100.00
28310;BME280;15571;50.974;13.936;2022-10-22T11:35:01;99996.97;;;14.03;100.00
28310;BME280;15571;50.974;13.936;2022-10-22T11:38:05;99997.69;;;14.09;100.00
28310;BME280;15571;50.974;13.936;2022-10-22T11:41:12;99993.16;;;14.14;100.00
28310;BME280;15571;50.974;13.936;2022-10-22T11:44:21;99999.22;;;14.18;100.00
28310;BME280;15571;50.974;13.936;2022-10-22T11:47:27;100002.69;;;14.20;100.00
28310;BME280;15571;50.974;13.936;2022-10-22T11:50:44;100006.09;;;14.24;100.00
28310;BME280;15571;50.974;13.936;2022-10-22T11:53:55;100013.25;;;14.19;100.00
28310;BME280;15571;50.974;13.936;2022-10-22T11:57:16;100014.00;;;14.24;100.00
28310;BME280;15571;50.974;13.936;2022-10-22T12:00:38;100001.81;;;14.20;100.00
28310;BME280;15571;50.974;13.936;2022-10-22T12:03:52;100003.47;;;14.24;100.00
28310;BME280;15571;50.974;13.936;2022-10-22T12:06:59;100000.84;;;14.24;100.00
28310;BME280;15571;50.974;13.936;2022-10-22T12:10:04;99997.25;;;14.28;100.00
28310;BME280;15571;50.974;13.936;2022-10-22T12:13:20;99985.72;;;14.32;100.00
28310;BME280;15571;50.974;13.936;2022-10-22T12:16:25;99987.44;;;14.33;100.00
28310;BME280;15571;50.974;13.936;2022-10-22T12:19:36;99973.31;;;14.37;100.00
28310;BME280;15571;50.974;13.936;2022-10-22T12:22:39;99981.94;;;14.42;100.00
28310;BME280;15571;50.974;13.936;2022-10-22T12:25:41;99983.59;;;14.46;100.00
28310;BME280;15571;50.974;13.936;2022-10-22T12:28:43;99988.94;;;14.43;100.00
28310;BME280;15571;50.974;13.936;2022-10-22T12:31:51;99988.81;;;14.50;100.00
28310;BME280;15571;50.974;13.936;2022-10-22T12:34:53;99983.44;;;14.53;100.00
28310;BME280;15571;50.974;13.936;2022-10-22T12:38:11;99980.91;;;14.50;100.00
28310;BME280;15571;50.974;13.936;2022-10-22T12:41:14;99980.75;;;14.56;100.00
28310;BME280;15571;50.974;13.936;2022-10-22T12:44:20;99981.56;;;14.58;100.00
28310;BME280;15571;50.974;13.936;2022-10-22T12:47:28;99971.97;;;14.55;100.00
28310;BME280;15571;50.974;13.936;2022-10-22T16:54:23;100152.00;;;13.71;100.00
28310;BME280;15571;50.974;13.936;2022-10-22T16:57:29;100160.00;;;13.65;100.00
28310;BME280;15571;50.974;13.936;2022-10-22T17:00:34;100156.50;;;13.64;100.00
28310;BME280;15571;50.974;13.936;2022-10-22T17:03:36;100162.66;;;13.62;100.00
28310;BME280;15571;50.974;13.936;2022-10-22T17:06:39;100162.75;;;13.59;100.00
28310;BME280;15571;50.974;13.936;2022-10-22T17:09:43;100166.28;;;13.58;100.00
28310;BME280;15571;50.974;13.936;2022-10-22T17:12:46;100166.41;;;13.51;100.00
28310;BME280;15571;50.974;13.936;2022-10-22T17:15:49;100169.09;;;13.47;100.00
28310;BME280;15571;50.974;13.936;2022-10-22T17:18:53;100169.97;;;13.47;100.00
28310;BME280;15571;50.974;13.936;2022-10-22T17:21:56;100177.88;;;13.46;100.00
28310;BME280;15571;50.974;13.936;2022-10-22T17:25:11;100182.22;;;13.48;100.00
28310;BME280;15571;50.974;13.936;2022-10-22T17:28:14;100190.94;;;13.50;100.00
28310;BME280;15571;50.974;13.936;2022-10-22T17:31:19;100197.03;;;13.54;100.00
28310;BME280;15571;50.974;13.936;2022-10-22T17:34:24;100196.09;;;13.57;100.00
28310;BME280;15571;50.974;13.936;2022-10-22T17:37:27;100200.50;;;13.56;100.00
28310;BME280;15571;50.974;13.936;2022-10-22T17:40:35;100210.97;;;13.58;100.00
28310;BME280;15571;50.974;13.936;2022-10-22T17:43:41;100215.34;;;13.57;100.00
28310;BME280;15571;50.974;13.936;2022-10-22T17:46:44;100212.81;;;13.54;100.00
28310;BME280;15571;50.974;13.936;2022-10-22T17:49:49;100218.06;;;13.54;100.00
28310;BME280;15571;50.974;13.936;2022-10-22T17:52:57;100221.59;;;13.53;100.00
28310;BME280;15571;50.974;13.936;2022-10-22T17:56:02;100213.72;;;13.51;100.00
28310;BME280;15571;50.974;13.936;2022-10-22T17:59:12;100224.25;;;13.50;100.00
28310;BME280;15571;50.974;13.936;2022-10-22T18:02:16;100228.69;;;13.46;100.00
28310;BME280;15571;50.974;13.936;2022-10-22T18:05:19;100243.72;;;13.41;100.00
28310;BME280;15571;50.974;13.936;2022-10-22T18:08:22;100248.97;;;13.38;100.00
28310;BME280;15571;50.974;13.936;2022-10-22T18:11:27;100244.59;;;13.40;100.00
28310;BME280;15571;50.974;13.936;2022-10-22T18:14:32;100252.50;;;13.37;100.00
28310;BME280;15571;50.974;13.936;2022-10-22T18:17:38;100249.94;;;13.32;100.00
28310;BME280;15571;50.974;13.936;2022-10-22T18:20:41;100244.72;;;13.29;100.00
28310;BME280;15571;50.974;13.936;2022-10-22T18:23:44;100246.56;;;13.24;100.00
28310;BME280;15571;50.974;13.936;2022-10-22T18:26:48;100252.78;;;13.18;100.00
28310;BME280;15571;50.974;13.936;2022-10-22T18:29:51;100258.09;;;13.17;100.00
28310;BME280;15571;50.974;13.936;2022-10-22T18:32:53;100261.59;;;13.14;100.00
28310;BME280;15571;50.974;13.936;2022-10-22T18:35:56;100262.56;;;13.08;100.00
28310;BME280;15571;50.974;13.936;2022-10-22T18:39:01;100263.56;;;13.03;100.00
28310;BME280;15571;50.974;13.936;2022-10-22T18:42:07;100268.00;;;12.98;100.00
28310;BME280;15571;50.974;13.936;2022-10-22T18:45:10;100267.09;;;12.99;100.00
28310;BME280;15571;50.974;13.936;2022-10-22T18:48:15;100259.25;;;12.96;100.00
28310;BME280;15571;50.974;13.936;2022-10-22T18:51:25;100262.84;;;12.91;100.00
28310;BME280;15571;50.974;13.936;2022-10-22T18:54:30;100266.41;;;12.84;100.00
28310;BME280;15571;50.974;13.936;2022-10-22T18:57:36;100265.72;;;12.73;100.00
28310;BME280;15571;50.974;13.936;2022-10-22T19:00:39;100260.53;;;12.67;100.00
28310;BME280;15571;50.974;13.936;2022-10-22T19:03:41;100258.06;;;12.56;100.00
28310;BME280;15571;50.974;13.936;2022-10-22T19:06:44;100265.06;;;12.55;100.00
28310;BME280;15571;50.974;13.936;2022-10-22T19:09:47;100265.13;;;12.51;100.00
28310;BME280;15571;50.974;13.936;2022-10-22T19:12:51;100265.19;;;12.46;100.00
28310;BME280;15571;50.974;13.936;2022-10-22T19:15:54;100273.94;;;12.45;100.00
28310;BME280;15571;50.974;13.936;2022-10-22T19:19:06;100267.00;;;12.41;100.00
28310;BME280;15571;50.974;13.936;2022-10-22T19:22:14;100269.75;;;12.32;100.00
28310;BME280;15571;50.974;13.936;2022-10-22T19:25:17;100269.78;;;12.28;100.00
28310;BME280;15571;50.974;13.936;2022-10-22T19:32:18;100263.84;;;12.11;100.00
28310;BME280;15571;50.974;13.936;2022-10-22T19:39:14;100279.69;;;12.05;100.00
28310;BME280;15571;50.974;13.936;2022-10-22T19:42:35;100279.69;;;12.02;100.00
28310;BME280;15571;50.974;13.936;2022-10-22T19:46:28;100286.75;;;11.98;100.00
28310;BME280;15571;50.974;13.936;2022-10-22T19:49:34;100290.22;;;11.97;100.00
28310;BME280;15571;50.974;13.936;2022-10-22T19:52:37;100294.56;;;11.96;100.00
28310;BME280;15571;50.974;13.936;2022-10-22T19:55:41;100289.34;;;11.99;100.00
28310;BME280;15571;50.974;13.936;2022-10-22T19:58:44;100291.97;;;11.98;100.00
28310;BME280;15571;50.974;13.936;2022-10-22T20:01:49;100305.94;;;11.95;100.00
